Terminal Aerodrome Forecast
Issued by NWS Jackson, KY

Home | Current Version | Previous Version | Text Only | Print | Product List | Glossary On
Versions: 1 2 3 4 5 6 7 8 9 10 11 12 13 14
305
FTUS43 KJKL 040232 AAA
TAFJKL
TAF AMD
KJKL 040232Z 0403/0424 29010KT P6SM BKN080
     FM040600 29005KT P6SM BKN025
     FM041500 30005KT P6SM SCT025=

USA.gov is the U.S. government's official web portal to all federal, state and local government web resources and services.